Marina Lobra — IXVN — position and weather

sailwx.info

Track history (hours):
 
Tides and Currents Weather Stations Pressure Air Temp Water Temp Dewpoint Dewpoint Depression Visibility Wind Speed Wind Dir Waves Ship Positions

Marina Lobra

Last reported at 2016-Feb-13 20:33 UTC. Time now 2016-Feb-14 01:43 UTC.
Position N 40°51' E 014°16'.

Length 56 m; draft 3.3 m.

Type: Ship (hazmat cat C). MMSI: 247188300.

Date/timePositionNaut miles runAvg speedWind from/ knotsBaromVisibWave heightAir tempDewpointWater temp
2016-Feb-13 20:33N 40°51' E 014°16'0 0.0
2016-Feb-13 19:33N 40°51' E 014°16'0 0.0
2016-Feb-13 13:21N 40°51' E 014°16'0 0.0
2016-Feb-12 21:29N 40°51' E 014°16'0 0.0
2016-Feb-12 20:33N 40°51' E 014°16'0 0.0
2016-Feb-12 19:33N 40°51' E 014°16'13 0.5
2016-Feb-11 19:13N 40°38' E 014°16'3 4.6
2016-Feb-11 18:33N 40°41' E 014°16'5 4.8
2016-Feb-11 17:33N 40°46' E 014°17'5 4.5
2016-Feb-11 16:32N 40°50' E 014°17'0 0.1
2016-Feb-11 15:33N 40°50' E 014°17'0 0.0
2016-Feb-11 14:32N 40°50' E 014°17'0 0.0
2016-Feb-11 13:33N 40°50' E 014°17'0 0.0
2016-Feb-11 12:33N 40°50' E 014°17'0 0.0
2016-Feb-11 11:30N 40°50' E 014°17'0 0.0
2016-Feb-11 10:33N 40°50' E 014°17'1 0.2
2016-Feb-11 08:05N 40°50' E 014°17'1 0.8
2016-Feb-11 07:16N 40°51' E 014°16'0 0.0
2016-Feb-11 06:23N 40°51' E 014°16'0 0.0
2016-Feb-11 05:33N 40°51' E 014°16'0 0.0
2016-Feb-11 03:30N 40°51' E 014°16'0 0.0
2016-Feb-11 02:17N 40°51' E 014°16'0 0.0
2016-Feb-11 01:29N 40°51' E 014°16'0 0.0
2016-Feb-11 00:27N 40°51' E 014°16'0 0.0
2016-Feb-10 21:28N 40°51' E 014°16'0 0.0
2016-Feb-10 20:33N 40°51' E 014°16'0 0.0
2016-Feb-10 19:33N 40°51' E 014°16'0 0.0
2016-Feb-10 18:29N 40°51' E 014°16'0 0.0
2016-Feb-10 17:23N 40°51' E 014°16'0 0.0
2016-Feb-10 16:31N 40°51' E 014°16'0 0.0
2016-Feb-10 15:30N 40°51' E 014°16'0 0.0
2016-Feb-10 14:16N 40°51' E 014°16'0 0.0
2016-Feb-10 12:15N 40°51' E 014°16'0 0.0
2016-Feb-10 11:31N 40°51' E 014°16'0 0.0
2016-Feb-10 10:18N 40°51' E 014°16'0 0.0
2016-Feb-10 09:33N 40°51' E 014°16'0 0.0
2016-Feb-10 05:09N 40°51' E 014°16'0 0.0
2016-Feb-10 04:30N 40°51' E 014°16'0 0.0
2016-Feb-10 02:08N 40°51' E 014°16'0 0.0
2016-Feb-09 20:22N 40°51' E 014°16'0 0.0
2016-Feb-09 19:31N 40°51' E 014°16'0 0.0
2016-Feb-09 18:33N 40°51' E 014°16'0 0.0
2016-Feb-09 17:31N 40°51' E 014°16'0 0.0
2016-Feb-09 16:32N 40°51' E 014°16'0 0.0
2016-Feb-09 15:33N 40°51' E 014°16'0 0.0
2016-Feb-09 14:33N 40°51' E 014°16'0 0.3
2016-Feb-09 13:32N 40°51' E 014°16'0 0.0
2016-Feb-07 18:33N 40°51' E 014°16'0 0.0
2016-Feb-06 22:12N 40°51' E 014°16'0 0.0
2016-Feb-06 13:06N 40°51' E 014°16'0 0.0
2016-Feb-06 12:33N 40°51' E 014°16'0 0.0
2016-Feb-06 11:33N 40°51' E 014°16'0 0.0
2016-Feb-05 18:30N 40°51' E 014°16'0 0.0
2016-Feb-05 17:33N 40°51' E 014°16'1 0.0
2016-Feb-04 12:23N 40°50' E 014°17'  
Track history (hours):
 
Tides and Currents Weather Stations Pressure Air Temp Water Temp Dewpoint Dewpoint Depression Visibility Wind Speed Wind Dir Waves Ship Positions

Marina Lobra

Last reported at 2016-Feb-13 20:33 UTC. Time now 2016-Feb-14 01:43 UTC.
Position N 40°51' E 014°16'.

Length 56 m; draft 3.3 m.

Type: Ship (hazmat cat C). MMSI: 247188300.

Date/timePositionNaut miles runAvg speedWind from/ knotsBaromVisibWave heightAir tempDewpointWater temp
2016-Feb-13 20:33N 40°51' E 014°16'0 0.0
2016-Feb-13 19:33N 40°51' E 014°16'0 0.0
2016-Feb-13 13:21N 40°51' E 014°16'0 0.0
2016-Feb-12 21:29N 40°51' E 014°16'0 0.0
2016-Feb-12 20:33N 40°51' E 014°16'0 0.0
2016-Feb-12 19:33N 40°51' E 014°16'13 0.5
2016-Feb-11 19:13N 40°38' E 014°16'3 4.6
2016-Feb-11 18:33N 40°41' E 014°16'5 4.8
2016-Feb-11 17:33N 40°46' E 014°17'5 4.5
2016-Feb-11 16:32N 40°50' E 014°17'0 0.1
2016-Feb-11 15:33N 40°50' E 014°17'0 0.0
2016-Feb-11 14:32N 40°50' E 014°17'0 0.0
2016-Feb-11 13:33N 40°50' E 014°17'0 0.0
2016-Feb-11 12:33N 40°50' E 014°17'0 0.0
2016-Feb-11 11:30N 40°50' E 014°17'0 0.0
2016-Feb-11 10:33N 40°50' E 014°17'1 0.2
2016-Feb-11 08:05N 40°50' E 014°17'1 0.8
2016-Feb-11 07:16N 40°51' E 014°16'0 0.0
2016-Feb-11 06:23N 40°51' E 014°16'0 0.0
2016-Feb-11 05:33N 40°51' E 014°16'0 0.0
2016-Feb-11 03:30N 40°51' E 014°16'0 0.0
2016-Feb-11 02:17N 40°51' E 014°16'0 0.0
2016-Feb-11 01:29N 40°51' E 014°16'0 0.0
2016-Feb-11 00:27N 40°51' E 014°16'0 0.0
2016-Feb-10 21:28N 40°51' E 014°16'0 0.0
2016-Feb-10 20:33N 40°51' E 014°16'0 0.0
2016-Feb-10 19:33N 40°51' E 014°16'0 0.0
2016-Feb-10 18:29N 40°51' E 014°16'0 0.0
2016-Feb-10 17:23N 40°51' E 014°16'0 0.0
2016-Feb-10 16:31N 40°51' E 014°16'0 0.0
2016-Feb-10 15:30N 40°51' E 014°16'0 0.0
2016-Feb-10 14:16N 40°51' E 014°16'0 0.0
2016-Feb-10 12:15N 40°51' E 014°16'0 0.0
2016-Feb-10 11:31N 40°51' E 014°16'0 0.0
2016-Feb-10 10:18N 40°51' E 014°16'0 0.0
2016-Feb-10 09:33N 40°51' E 014°16'0 0.0
2016-Feb-10 05:09N 40°51' E 014°16'0 0.0
2016-Feb-10 04:30N 40°51' E 014°16'0 0.0
2016-Feb-10 02:08N 40°51' E 014°16'0 0.0
2016-Feb-09 20:22N 40°51' E 014°16'0 0.0
2016-Feb-09 19:31N 40°51' E 014°16'0 0.0
2016-Feb-09 18:33N 40°51' E 014°16'0 0.0
2016-Feb-09 17:31N 40°51' E 014°16'0 0.0
2016-Feb-09 16:32N 40°51' E 014°16'0 0.0
2016-Feb-09 15:33N 40°51' E 014°16'0 0.0
2016-Feb-09 14:33N 40°51' E 014°16'0 0.3
2016-Feb-09 13:32N 40°51' E 014°16'0 0.0
2016-Feb-07 18:33N 40°51' E 014°16'0 0.0
2016-Feb-06 22:12N 40°51' E 014°16'0 0.0
2016-Feb-06 13:06N 40°51' E 014°16'0 0.0
2016-Feb-06 12:33N 40°51' E 014°16'0 0.0
2016-Feb-06 11:33N 40°51' E 014°16'0 0.0
2016-Feb-05 18:30N 40°51' E 014°16'0 0.0
2016-Feb-05 17:33N 40°51' E 014°16'1 0.0
2016-Feb-04 12:23N 40°50' E 014°17'  

Dump ship's entire track history